Time;durP1;ratioP1;P1;durP2;ratioP2;P2;SDS_P1;SDS_P2;PMS_P1;PMS_P2;Temp;Humidity;BMP_temperature;BMP_pressure;BME280_temperature;BME280_humidity;BME280_pressure;Samples;Min_cycle;Max_cycle;Signal;HPM_P1;HPM_P2
2023/05/27 00:01:25;;;;;;;17.33;4.38;;;;;;;;;;5012046;28;20235;-62
2023/05/27 00:03:50;;;;;;;19.40;5.13;;;;;;;;;;5012412;28;20213;-62
2023/05/27 00:06:16;;;;;;;16.83;4.53;;;;;;;;;;5011225;28;20228;-62
2023/05/27 00:08:41;;;;;;;22.02;4.80;;;;;;;;;;5012238;28;20248;-62
2023/05/27 00:11:06;;;;;;;19.20;4.53;;;;;;;;;;5012077;28;20236;-61
2023/05/27 00:13:31;;;;;;;16.38;4.80;;;;;;;;;;5011829;28;20208;-62
2023/05/27 00:15:57;;;;;;;15.52;4.88;;;;;;;;;;5012180;28;20676;-62
2023/05/27 00:18:22;;;;;;;15.73;4.50;;;;;;;;;;5012163;28;20208;-62
2023/05/27 00:20:48;;;;;;;25.20;5.10;;;;;;;;;;5011679;28;20291;-62
2023/05/27 00:23:13;;;;;;;18.58;4.70;;;;;;;;;;5012177;28;20220;-61
2023/05/27 00:25:39;;;;;;;18.48;4.75;;;;;;;;;;5011933;28;20282;-62
2023/05/27 00:28:04;;;;;;;16.90;4.85;;;;;;;;;;5011268;28;20205;-61
2023/05/27 00:30:30;;;;;;;23.45;5.82;;;;;;;;;;5011954;28;20216;-61
2023/05/27 00:32:55;;;;;;;20.80;5.03;;;;;;;;;;5011736;28;20724;-62
2023/05/27 00:35:21;;;;;;;20.52;4.78;;;;;;;;;;5010619;28;20244;-62
2023/05/27 00:37:46;;;;;;;20.73;5.55;;;;;;;;;;5012472;28;20215;-62
2023/05/27 00:40:12;;;;;;;20.52;5.60;;;;;;;;;;5011176;28;20555;-61
2023/05/27 00:42:37;;;;;;;17.67;4.78;;;;;;;;;;5010689;28;20244;-61
2023/05/27 00:45:03;;;;;;;16.77;5.35;;;;;;;;;;5011650;28;20244;-61
2023/05/27 00:47:29;;;;;;;18.58;5.40;;;;;;;;;;5011472;28;20243;-61
2023/05/27 00:49:55;;;;;;;21.88;5.32;;;;;;;;;;5012029;28;20208;-62
2023/05/27 00:52:20;;;;;;;20.75;5.22;;;;;;;;;;5010440;28;20215;-62
2023/05/27 00:54:45;;;;;;;21.35;5.20;;;;;;;;;;5011099;28;20291;-62
2023/05/27 00:57:11;;;;;;;25.92;6.00;;;;;;;;;;5011420;28;20213;-61
2023/05/27 00:59:36;;;;;;;20.45;5.63;;;;;;;;;;5011832;28;20573;-62
2023/05/27 01:02:01;;;;;;;24.15;5.25;;;;;;;;;;5010898;28;20228;-61
2023/05/27 01:04:27;;;;;;;21.08;5.32;;;;;;;;;;5012074;28;20255;-61
2023/05/27 01:07:04;;;;;;;22.08;5.18;;;;;;;;;;5010864;28;20212;-61
2023/05/27 01:09:31;;;;;;;21.10;4.90;;;;;;;;;;5012245;28;20204;-61
2023/05/27 01:12:07;;;;;;;17.35;5.07;;;;;;;;;;5015077;28;20698;-62
2023/05/27 01:14:33;;;;;;;20.60;5.38;;;;;;;;;;5015203;28;20223;-61
2023/05/27 01:16:58;;;;;;;20.05;5.75;;;;;;;;;;5014762;28;20709;-62
2023/05/27 01:19:30;;;;;;;20.35;5.57;;;;;;;;;;5015187;28;20208;-62
2023/05/27 01:21:55;;;;;;;16.25;4.97;;;;;;;;;;5015143;28;20729;-62
2023/05/27 01:24:21;;;;;;;20.80;5.40;;;;;;;;;;5012805;28;20287;-61
2023/05/27 01:26:46;;;;;;;20.67;5.75;;;;;;;;;;5014803;28;20216;-61
2023/05/27 01:29:11;;;;;;;20.63;5.20;;;;;;;;;;5013710;28;20226;-61
2023/05/27 01:31:41;;;;;;;22.10;5.72;;;;;;;;;;5015353;28;20659;-62
2023/05/27 01:34:07;;;;;;;18.02;5.60;;;;;;;;;;5014761;28;20287;-60
2023/05/27 01:36:34;;;;;;;25.17;6.47;;;;;;;;;;5013049;28;20296;-61
2023/05/27 01:39:00;;;;;;;19.25;6.30;;;;;;;;;;5013857;28;20707;-61
2023/05/27 01:41:26;;;;;;;21.38;5.47;;;;;;;;;;5014306;28;20315;-60
2023/05/27 01:43:51;;;;;;;17.23;5.60;;;;;;;;;;4997326;28;20225;-61
2023/05/27 01:46:16;;;;;;;24.50;6.63;;;;;;;;;;5016416;28;20324;-60
2023/05/27 01:48:43;;;;;;;19.83;5.38;;;;;;;;;;4992088;28;20607;-61
2023/05/27 01:51:08;;;;;;;25.38;5.75;;;;;;;;;;4984325;28;20223;-60
2023/05/27 01:53:33;;;;;;;19.38;5.60;;;;;;;;;;5001855;28;20208;-60
2023/05/27 01:55:59;;;;;;;29.45;6.30;;;;;;;;;;4995305;28;20217;-61
2023/05/27 01:58:24;;;;;;;16.42;5.13;;;;;;;;;;4979948;28;20221;-60
2023/05/27 02:00:50;;;;;;;21.75;6.00;;;;;;;;;;4984129;28;20220;-61
2023/05/27 02:03:15;;;;;;;22.83;6.00;;;;;;;;;;4995884;28;20236;-60
2023/05/27 02:05:41;;;;;;;19.35;6.07;;;;;;;;;;4999303;28;20219;-61
2023/05/27 02:08:06;;;;;;;19.75;5.30;;;;;;;;;;5003670;28;20251;-60
2023/05/27 02:10:32;;;;;;;19.17;5.60;;;;;;;;;;5004397;28;20809;-60
2023/05/27 02:12:57;;;;;;;20.05;5.68;;;;;;;;;;4995370;28;20308;-60
2023/05/27 02:15:23;;;;;;;19.20;5.80;;;;;;;;;;4984428;28;20567;-60
2023/05/27 02:17:54;;;;;;;20.17;5.82;;;;;;;;;;4991321;28;20684;-60
2023/05/27 02:20:20;;;;;;;22.42;5.97;;;;;;;;;;5001029;28;20660;-60
2023/05/27 02:22:45;;;;;;;27.90;5.97;;;;;;;;;;4996429;28;20213;-60
2023/05/27 02:25:10;;;;;;;18.35;5.90;;;;;;;;;;4976158;28;20658;-60
2023/05/27 02:27:36;;;;;;;18.52;5.78;;;;;;;;;;4978041;28;20216;-60
2023/05/27 02:30:01;;;;;;;20.70;5.95;;;;;;;;;;4984053;28;20242;-59
2023/05/27 02:32:26;;;;;;;19.25;6.40;;;;;;;;;;4984095;28;20228;-60
2023/05/27 02:34:52;;;;;;;19.40;5.35;;;;;;;;;;4984364;28;20221;-60
2023/05/27 02:37:17;;;;;;;19.98;6.32;;;;;;;;;;4984158;28;20579;-61
2023/05/27 02:39:42;;;;;;;25.48;6.55;;;;;;;;;;4983361;28;20370;-60
2023/05/27 02:42:08;;;;;;;25.45;6.60;;;;;;;;;;5001527;28;20307;-60
2023/05/27 02:44:33;;;;;;;21.20;7.20;;;;;;;;;;4996159;28;20494;-60
2023/05/27 02:46:58;;;;;;;23.85;6.45;;;;;;;;;;4993559;28;20224;-61
2023/05/27 02:49:23;;;;;;;24.80;6.53;;;;;;;;;;4994629;28;20212;-60
2023/05/27 02:51:49;;;;;;;26.02;6.70;;;;;;;;;;4997672;28;20747;-60
2023/05/27 02:54:14;;;;;;;25.42;6.55;;;;;;;;;;4982768;28;20209;-60
2023/05/27 02:56:39;;;;;;;21.27;6.10;;;;;;;;;;4984331;28;20223;-60
2023/05/27 02:59:05;;;;;;;17.98;5.68;;;;;;;;;;4983785;28;20205;-60
2023/05/27 03:01:30;;;;;;;24.38;6.32;;;;;;;;;;5001874;28;20632;-60
2023/05/27 03:03:56;;;;;;;22.73;6.68;;;;;;;;;;5003315;28;20220;-60
2023/05/27 03:06:21;;;;;;;19.13;6.50;;;;;;;;;;4998337;28;20756;-60
2023/05/27 03:08:47;;;;;;;22.15;6.25;;;;;;;;;;4994500;28;20208;-60
2023/05/27 03:11:12;;;;;;;25.15;6.07;;;;;;;;;;4994228;28;20290;-60
2023/05/27 03:13:37;;;;;;;24.58;6.15;;;;;;;;;;4999416;28;20745;-60
2023/05/27 03:16:03;;;;;;;19.52;5.97;;;;;;;;;;4983954;28;20220;-59
2023/05/27 03:18:28;;;;;;;19.00;6.00;;;;;;;;;;5002702;28;20235;-60
2023/05/27 03:20:53;;;;;;;21.23;5.97;;;;;;;;;;5002832;28;20643;-61
2023/05/27 03:23:18;;;;;;;23.75;7.25;;;;;;;;;;5001378;28;20232;-60
2023/05/27 03:25:44;;;;;;;19.17;6.60;;;;;;;;;;5002466;28;20236;-61
2023/05/27 03:28:10;;;;;;;27.77;7.05;;;;;;;;;;4997025;28;20338;-59
2023/05/27 03:30:35;;;;;;;23.08;6.78;;;;;;;;;;4975385;28;20225;-60
2023/05/27 03:33:01;;;;;;;23.73;7.25;;;;;;;;;;4974483;28;20283;-59
2023/05/27 03:35:26;;;;;;;22.67;6.68;;;;;;;;;;4992163;28;20220;-60
2023/05/27 03:37:51;;;;;;;23.20;7.50;;;;;;;;;;4982683;28;20320;-61
2023/05/27 03:40:17;;;;;;;20.10;6.55;;;;;;;;;;4983056;28;20798;-60
2023/05/27 03:42:42;;;;;;;25.92;7.20;;;;;;;;;;4982785;28;20751;-60
2023/05/27 03:45:07;;;;;;;22.10;6.22;;;;;;;;;;4982711;28;20218;-60
2023/05/27 03:47:34;;;;;;;20.23;6.28;;;;;;;;;;4983253;28;20220;-60
2023/05/27 03:50:00;;;;;;;24.67;6.72;;;;;;;;;;5001802;28;21169;-60
2023/05/27 03:52:25;;;;;;;24.25;6.70;;;;;;;;;;4985137;28;20727;-60
2023/05/27 03:54:50;;;;;;;22.92;6.70;;;;;;;;;;4974721;28;20323;-60
2023/05/27 03:57:16;;;;;;;20.50;5.60;;;;;;;;;;4974192;28;20209;-60
2023/05/27 03:59:41;;;;;;;25.08;6.25;;;;;;;;;;4981990;28;20241;-60
2023/05/27 04:02:06;;;;;;;25.85;6.63;;;;;;;;;;4982610;28;20241;-60
2023/05/27 04:04:32;;;;;;;23.45;6.15;;;;;;;;;;4981999;28;20213;-60
2023/05/27 04:06:57;;;;;;;27.73;6.90;;;;;;;;;;4983374;28;20213;-60
2023/05/27 04:09:22;;;;;;;19.92;6.13;;;;;;;;;;4982447;28;20240;-60
2023/05/27 04:11:47;;;;;;;22.40;7.40;;;;;;;;;;4982616;28;20208;-60
2023/05/27 04:14:13;;;;;;;21.00;6.70;;;;;;;;;;4978110;28;20217;-60
2023/05/27 04:16:41;;;;;;;24.40;6.68;;;;;;;;;;4974847;28;20209;-60
2023/05/27 04:19:07;;;;;;;21.90;6.78;;;;;;;;;;4992661;28;20216;-60
2023/05/27 04:21:32;;;;;;;23.55;7.03;;;;;;;;;;4998564;28;20578;-60
2023/05/27 04:23:57;;;;;;;21.90;6.80;;;;;;;;;;5002335;28;20827;-60
2023/05/27 04:26:23;;;;;;;24.65;6.63;;;;;;;;;;5000707;28;20228;-60
2023/05/27 04:28:48;;;;;;;20.13;6.47;;;;;;;;;;4993518;28;20213;-60
2023/05/27 04:31:15;;;;;;;23.23;6.05;;;;;;;;;;4981865;28;20224;-60
2023/05/27 04:33:41;;;;;;;24.60;6.47;;;;;;;;;;5000949;28;20212;-60
2023/05/27 04:36:07;;;;;;;23.42;6.45;;;;;;;;;;4999494;28;20215;-60
2023/05/27 04:38:32;;;;;;;21.92;6.35;;;;;;;;;;4994271;28;20208;-60
2023/05/27 04:40:58;;;;;;;22.35;6.80;;;;;;;;;;4993390;28;20216;-61
2023/05/27 04:43:24;;;;;;;23.88;6.47;;;;;;;;;;4995353;28;20228;-60
2023/05/27 04:45:50;;;;;;;26.60;7.68;;;;;;;;;;5005605;28;20770;-60
2023/05/27 04:48:15;;;;;;;23.23;6.93;;;;;;;;;;4986139;28;20245;-60
2023/05/27 04:50:41;;;;;;;23.58;7.40;;;;;;;;;;5020235;28;20209;-60
2023/05/27 04:53:06;;;;;;;21.40;6.72;;;;;;;;;;4989284;28;20814;-60
2023/05/27 04:55:32;;;;;;;26.27;6.15;;;;;;;;;;4999879;28;20300;-60
2023/05/27 04:57:57;;;;;;;28.55;6.75;;;;;;;;;;4986315;28;20221;-60
2023/05/27 05:00:34;;;;;;;24.58;6.80;;;;;;;;;;4997172;28;20754;-61
2023/05/27 05:03:00;;;;;;;23.83;6.07;;;;;;;;;;4997084;28;20297;-60
2023/05/27 05:05:26;;;;;;;18.55;6.18;;;;;;;;;;4997881;28;20802;-60
2023/05/27 05:07:51;;;;;;;19.10;5.93;;;;;;;;;;5004086;28;20224;-60
2023/05/27 05:10:16;;;;;;;27.95;6.78;;;;;;;;;;5005111;28;20255;-60
2023/05/27 05:12:42;;;;;;;26.10;6.80;;;;;;;;;;5005132;28;20236;-60
2023/05/27 05:15:08;;;;;;;21.92;5.82;;;;;;;;;;4994130;28;20315;-60
2023/05/27 05:17:33;;;;;;;25.92;7.05;;;;;;;;;;4985658;28;20217;-60
2023/05/27 05:19:58;;;;;;;24.60;7.30;;;;;;;;;;4986159;28;20706;-60
2023/05/27 05:22:24;;;;;;;20.85;6.07;;;;;;;;;;4979759;28;20234;-60
2023/05/27 05:24:49;;;;;;;18.83;5.57;;;;;;;;;;4977466;28;20221;-60
2023/05/27 05:27:15;;;;;;;22.67;6.00;;;;;;;;;;4996065;28;20219;-61
2023/05/27 05:29:40;;;;;;;22.23;7.03;;;;;;;;;;5000637;28;20227;-60
2023/05/27 05:32:06;;;;;;;24.48;6.93;;;;;;;;;;5004284;28;20303;-59
2023/05/27 05:34:32;;;;;;;23.65;6.47;;;;;;;;;;5004648;28;20279;-60
2023/05/27 05:36:57;;;;;;;23.55;5.95;;;;;;;;;;5004111;28;20239;-60
2023/05/27 05:39:22;;;;;;;21.65;6.43;;;;;;;;;;5004078;28;20211;-60
2023/05/27 05:41:48;;;;;;;25.48;6.80;;;;;;;;;;5004502;28;20652;-62
2023/05/27 05:44:13;;;;;;;22.98;6.20;;;;;;;;;;4997508;28;20225;-61
2023/05/27 05:46:38;;;;;;;22.85;6.07;;;;;;;;;;4992355;28;20654;-61
2023/05/27 05:49:04;;;;;;;19.15;6.18;;;;;;;;;;4991269;28;20646;-59
2023/05/27 05:51:30;;;;;;;23.05;5.88;;;;;;;;;;4979350;28;20223;-60
2023/05/27 05:53:56;;;;;;;20.55;6.28;;;;;;;;;;5003004;28;20437;-60
2023/05/27 05:56:21;;;;;;;25.40;7.10;;;;;;;;;;4990479;28;20209;-63
2023/05/27 05:58:47;;;;;;;28.00;7.25;;;;;;;;;;4984012;28;20770;-61
2023/05/27 06:01:12;;;;;;;25.23;7.45;;;;;;;;;;4984410;28;20625;-60
2023/05/27 06:03:37;;;;;;;20.20;6.13;;;;;;;;;;4982692;28;20229;-60
2023/05/27 06:06:03;;;;;;;29.08;7.03;;;;;;;;;;4983517;28;20217;-60
2023/05/27 06:08:28;;;;;;;23.65;7.30;;;;;;;;;;4988410;28;20594;-60
2023/05/27 06:10:53;;;;;;;22.23;6.55;;;;;;;;;;5011524;28;20646;-60
2023/05/27 06:13:19;;;;;;;24.05;6.88;;;;;;;;;;5012394;28;20718;-59
2023/05/27 06:15:44;;;;;;;19.10;6.43;;;;;;;;;;5013636;28;20208;-60
2023/05/27 06:18:10;;;;;;;21.65;6.63;;;;;;;;;;5009448;28;20258;-61
2023/05/27 06:20:35;;;;;;;20.20;6.50;;;;;;;;;;5013340;28;20204;-60
2023/05/27 06:23:01;;;;;;;23.67;7.27;;;;;;;;;;5012544;28;20789;-60
2023/05/27 06:25:26;;;;;;;19.83;6.28;;;;;;;;;;5012429;28;20224;-60
2023/05/27 06:27:51;;;;;;;22.50;6.30;;;;;;;;;;5013512;28;20255;-60
2023/05/27 06:30:16;;;;;;;20.38;7.13;;;;;;;;;;5012967;28;20200;-60
2023/05/27 06:32:42;;;;;;;26.20;6.50;;;;;;;;;;5012669;28;20579;-60
2023/05/27 06:35:07;;;;;;;23.42;6.82;;;;;;;;;;5011750;28;20765;-60
2023/05/27 06:37:32;;;;;;;20.70;6.45;;;;;;;;;;5013338;28;20231;-60
2023/05/27 06:39:58;;;;;;;19.88;6.10;;;;;;;;;;5012560;28;20216;-62
2023/05/27 06:42:23;;;;;;;25.33;6.32;;;;;;;;;;5012983;28;20220;-60
2023/05/27 06:44:48;;;;;;;22.42;6.40;;;;;;;;;;5013608;28;20220;-61
2023/05/27 06:47:14;;;;;;;19.17;6.03;;;;;;;;;;5012599;28;20216;-60
2023/05/27 06:49:39;;;;;;;21.25;6.07;;;;;;;;;;5013350;28;20220;-61
2023/05/27 06:52:05;;;;;;;21.83;6.55;;;;;;;;;;5011109;28;20205;-60
2023/05/27 06:54:30;;;;;;;19.50;5.95;;;;;;;;;;5011429;28;20230;-60
2023/05/27 06:56:56;;;;;;;23.42;6.55;;;;;;;;;;5013673;28;20208;-59
2023/05/27 06:59:21;;;;;;;23.85;6.20;;;;;;;;;;5012951;28;20208;-60
2023/05/27 07:01:46;;;;;;;20.00;6.30;;;;;;;;;;5012078;28;20224;-60
2023/05/27 07:04:11;;;;;;;21.40;6.90;;;;;;;;;;5012362;28;20267;-59
2023/05/27 07:06:37;;;;;;;26.15;6.53;;;;;;;;;;5012677;28;20278;-60
2023/05/27 07:09:03;;;;;;;19.58;6.45;;;;;;;;;;5008941;28;20671;-60
2023/05/27 07:11:28;;;;;;;22.98;6.18;;;;;;;;;;5011269;28;20212;-59
2023/05/27 07:13:53;;;;;;;19.63;6.13;;;;;;;;;;5012104;28;20299;-59
2023/05/27 07:16:19;;;;;;;22.02;6.40;;;;;;;;;;5009381;28;20294;-60
2023/05/27 07:18:44;;;;;;;20.33;6.13;;;;;;;;;;5012657;28;20295;-60
2023/05/27 07:21:09;;;;;;;21.92;6.00;;;;;;;;;;5010770;28;20223;-59
2023/05/27 07:23:35;;;;;;;25.35;6.68;;;;;;;;;;5012416;28;20216;-60
2023/05/27 07:26:00;;;;;;;27.65;7.45;;;;;;;;;;5011919;28;20227;-59
2023/05/27 07:28:26;;;;;;;21.05;6.00;;;;;;;;;;5011824;28;20213;-60
2023/05/27 07:30:51;;;;;;;15.35;4.95;;;;;;;;;;5012576;28;20295;-60
2023/05/27 07:33:17;;;;;;;21.45;5.80;;;;;;;;;;5011968;28;20204;-60
2023/05/27 07:35:42;;;;;;;20.40;6.68;;;;;;;;;;5011867;28;20578;-60
2023/05/27 07:38:07;;;;;;;19.20;5.78;;;;;;;;;;5012641;28;20235;-60
2023/05/27 07:40:33;;;;;;;20.95;5.50;;;;;;;;;;5012971;28;20226;-60
2023/05/27 07:42:58;;;;;;;20.38;5.80;;;;;;;;;;5012004;28;20247;-61
2023/05/27 07:45:23;;;;;;;22.40;6.20;;;;;;;;;;5012163;28;20702;-60
2023/05/27 07:47:49;;;;;;;17.25;5.85;;;;;;;;;;5012962;28;20739;-60
2023/05/27 07:50:14;;;;;;;18.08;5.88;;;;;;;;;;5011348;28;20756;-60
2023/05/27 07:52:40;;;;;;;23.35;7.13;;;;;;;;;;5012414;28;20286;-60
2023/05/27 07:55:06;;;;;;;19.42;6.70;;;;;;;;;;5011922;28;20303;-60
2023/05/27 07:57:31;;;;;;;20.25;5.97;;;;;;;;;;5011795;28;20204;-60
2023/05/27 07:59:56;;;;;;;23.63;7.18;;;;;;;;;;5012456;28;20213;-60
2023/05/27 08:02:22;;;;;;;21.17;6.30;;;;;;;;;;5012112;28;20220;-60
2023/05/27 08:04:48;;;;;;;19.13;6.53;;;;;;;;;;5011396;28;20208;-60
2023/05/27 08:07:13;;;;;;;19.92;6.78;;;;;;;;;;5011993;28;20230;-60
2023/05/27 08:09:39;;;;;;;19.45;6.45;;;;;;;;;;5012432;28;20755;-60
2023/05/27 08:12:06;;;;;;;20.80;6.78;;;;;;;;;;5011215;28;20205;-60
2023/05/27 08:14:31;;;;;;;19.70;6.38;;;;;;;;;;5012196;28;20292;-60
2023/05/27 08:16:57;;;;;;;25.05;7.10;;;;;;;;;;5012300;28;20224;-61
2023/05/27 08:19:22;;;;;;;32.05;7.13;;;;;;;;;;5014174;28;20212;-61
2023/05/27 08:21:48;;;;;;;21.00;6.80;;;;;;;;;;5016081;28;20280;-61
2023/05/27 08:24:14;;;;;;;19.13;6.97;;;;;;;;;;5015279;28;20227;-60
2023/05/27 08:26:39;;;;;;;17.50;6.60;;;;;;;;;;5016065;28;20272;-61
2023/05/27 08:29:05;;;;;;;23.52;6.82;;;;;;;;;;5015991;28;20220;-60
2023/05/27 08:31:30;;;;;;;19.48;6.57;;;;;;;;;;5015435;28;20219;-61
2023/05/27 08:33:55;;;;;;;26.40;7.43;;;;;;;;;;5016185;28;20679;-61
2023/05/27 08:36:21;;;;;;;24.90;7.75;;;;;;;;;;5015689;28;20216;-61
2023/05/27 08:38:46;;;;;;;19.85;6.40;;;;;;;;;;5015302;28;20580;-61
2023/05/27 08:41:12;;;;;;;20.80;6.65;;;;;;;;;;5015706;28;20655;-61
2023/05/27 08:43:37;;;;;;;21.85;6.88;;;;;;;;;;5014701;28;20332;-61
2023/05/27 08:46:02;;;;;;;20.05;6.38;;;;;;;;;;5014876;28;20224;-60
2023/05/27 08:48:28;;;;;;;24.88;7.55;;;;;;;;;;5015877;28;20622;-61
2023/05/27 08:50:53;;;;;;;23.77;7.30;;;;;;;;;;5015853;28;20212;-61
2023/05/27 08:53:19;;;;;;;23.92;7.03;;;;;;;;;;5014433;28;20216;-61
2023/05/27 08:55:44;;;;;;;21.85;6.88;;;;;;;;;;5015383;28;20706;-61
2023/05/27 08:58:09;;;;;;;17.70;6.85;;;;;;;;;;5014149;28;20220;-61
2023/05/27 09:00:35;;;;;;;21.00;6.88;;;;;;;;;;5015124;28;20339;-61
2023/05/27 09:03:00;;;;;;;18.15;6.65;;;;;;;;;;5015487;28;20247;-62
2023/05/27 09:05:25;;;;;;;22.02;6.85;;;;;;;;;;5013995;28;20262;-61
2023/05/27 09:07:51;;;;;;;23.33;7.28;;;;;;;;;;5014405;28;20216;-60
2023/05/27 09:10:16;;;;;;;25.73;7.25;;;;;;;;;;5015154;28;20212;-61
2023/05/27 09:12:43;;;;;;;22.52;7.43;;;;;;;;;;5015389;28;20208;-61
2023/05/27 09:15:09;;;;;;;19.65;6.97;;;;;;;;;;5014051;28;20209;-60
2023/05/27 09:17:39;;;;;;;23.77;7.35;;;;;;;;;;5015154;28;20227;-61
2023/05/27 09:20:07;;;;;;;24.20;6.97;;;;;;;;;;5014797;28;20694;-60
2023/05/27 09:22:32;;;;;;;23.52;7.97;;;;;;;;;;5014183;28;20256;-60
2023/05/27 09:24:58;;;;;;;23.55;7.03;;;;;;;;;;5015122;28;20259;-61
2023/05/27 09:27:23;;;;;;;24.95;7.68;;;;;;;;;;5013937;28;20240;-61
2023/05/27 09:29:49;;;;;;;25.08;7.63;;;;;;;;;;5014508;28;20295;-61
2023/05/27 09:32:22;;;;;;;20.73;7.15;;;;;;;;;;5014553;28;20216;-61
2023/05/27 09:34:48;;;;;;;19.70;7.32;;;;;;;;;;5013142;28;20270;-62
2023/05/27 09:37:14;;;;;;;21.52;6.85;;;;;;;;;;5014516;28;20212;-61
2023/05/27 09:39:40;;;;;;;21.80;6.88;;;;;;;;;;5014781;28;20215;-61
2023/05/27 09:42:07;;;;;;;20.00;7.60;;;;;;;;;;5013705;28;20294;-62
2023/05/27 09:44:36;;;;;;;20.70;6.78;;;;;;;;;;5014708;28;20248;-61
2023/05/27 09:47:02;;;;;;;21.63;7.65;;;;;;;;;;5014424;28;20216;-61
2023/05/27 09:49:27;;;;;;;23.15;8.48;;;;;;;;;;5014106;28;20212;-63
2023/05/27 09:51:53;;;;;;;22.52;8.00;;;;;;;;;;5013155;28;20219;-61
2023/05/27 09:54:19;;;;;;;18.85;6.80;;;;;;;;;;5012858;28;20578;-62
2023/05/27 09:56:45;;;;;;;25.23;7.50;;;;;;;;;;5013696;28;20561;-61
2023/05/27 09:59:10;;;;;;;18.33;6.38;;;;;;;;;;5012715;28;20224;-62
2023/05/27 10:01:36;;;;;;;19.55;6.32;;;;;;;;;;5013344;28;20295;-61
2023/05/27 10:04:01;;;;;;;16.73;7.00;;;;;;;;;;5013150;28;20223;-61
2023/05/27 10:06:26;;;;;;;25.13;7.30;;;;;;;;;;5013099;28;20216;-61
2023/05/27 10:08:53;;;;;;;19.92;6.93;;;;;;;;;;5014050;28;20209;-62
2023/05/27 10:11:18;;;;;;;20.27;6.80;;;;;;;;;;5013193;28;20618;-62
2023/05/27 10:13:44;;;;;;;19.45;6.78;;;;;;;;;;5012842;28;20213;-61
2023/05/27 10:16:17;;;;;;;20.30;6.38;;;;;;;;;;5013745;28;20220;-62
2023/05/27 10:18:43;;;;;;;22.08;7.55;;;;;;;;;;5013453;28;20204;-62
2023/05/27 10:21:08;;;;;;;20.98;7.07;;;;;;;;;;5013636;28;20212;-62
2023/05/27 10:23:33;;;;;;;18.42;6.78;;;;;;;;;;5014062;28;20216;-62
2023/05/27 10:26:06;;;;;;;23.58;7.65;;;;;;;;;;5013225;28;20352;-62
2023/05/27 10:28:32;;;;;;;17.80;7.10;;;;;;;;;;5013550;28;20729;-62
2023/05/27 10:31:04;;;;;;;19.60;6.95;;;;;;;;;;5013349;28;20227;-62
2023/05/27 10:33:30;;;;;;;21.15;7.05;;;;;;;;;;5013822;28;20255;-61
2023/05/27 10:35:56;;;;;;;20.15;6.93;;;;;;;;;;5013970;28;20216;-61
2023/05/27 10:38:21;;;;;;;17.35;6.18;;;;;;;;;;5012691;28;20609;-61
2023/05/27 10:40:48;;;;;;;20.07;6.60;;;;;;;;;;5013341;28;20450;-63
2023/05/27 10:43:19;;;;;;;17.23;6.25;;;;;;;;;;5011274;28;20323;-64
2023/05/27 10:45:46;;;;;;;19.45;6.97;;;;;;;;;;5011450;28;20718;-62
2023/05/27 10:48:15;;;;;;;18.60;6.57;;;;;;;;;;5013122;28;20204;-62
2023/05/27 10:50:40;;;;;;;21.10;7.03;;;;;;;;;;5011483;28;20618;-61
2023/05/27 10:53:07;;;;;;;18.77;6.55;;;;;;;;;;5011937;28;20201;-62
2023/05/27 10:55:32;;;;;;;16.10;6.28;;;;;;;;;;5013083;28;20216;-63
2023/05/27 10:57:57;;;;;;;19.15;5.85;;;;;;;;;;5011714;28;20296;-61
2023/05/27 11:00:24;;;;;;;20.15;6.00;;;;;;;;;;5012275;28;20290;-61
2023/05/27 11:02:49;;;;;;;14.65;6.45;;;;;;;;;;5013420;28;20221;-61
2023/05/27 11:05:15;;;;;;;21.30;6.32;;;;;;;;;;5012871;28;20272;-61
2023/05/27 11:07:40;;;;;;;20.15;6.75;;;;;;;;;;5011292;28;20275;-62
2023/05/27 11:10:06;;;;;;;18.55;6.85;;;;;;;;;;5012364;28;20280;-61
2023/05/27 11:12:32;;;;;;;20.00;6.70;;;;;;;;;;5013539;28;20213;-62
2023/05/27 11:14:57;;;;;;;19.00;6.90;;;;;;;;;;5010921;28;20672;-62
2023/05/27 11:17:22;;;;;;;16.40;6.53;;;;;;;;;;5012737;28;20251;-62
2023/05/27 11:19:49;;;;;;;14.30;5.45;;;;;;;;;;5011967;28;20267;-61
2023/05/27 11:22:15;;;;;;;15.77;5.85;;;;;;;;;;5012079;28;20707;-61
2023/05/27 11:24:41;;;;;;;17.25;5.63;;;;;;;;;;5012832;28;20560;-60
2023/05/27 11:27:08;;;;;;;14.48;5.88;;;;;;;;;;5011412;28;20726;-62
2023/05/27 11:29:33;;;;;;;18.60;5.95;;;;;;;;;;5013101;28;20277;-61
2023/05/27 11:31:58;;;;;;;15.55;6.05;;;;;;;;;;5010943;28;20680;-61
2023/05/27 11:34:23;;;;;;;14.55;5.50;;;;;;;;;;5011711;28;20267;-61
2023/05/27 11:36:49;;;;;;;15.95;5.68;;;;;;;;;;5011587;28;20220;-62
2023/05/27 11:39:21;;;;;;;15.20;5.40;;;;;;;;;;5011583;28;20226;-62
2023/05/27 11:41:47;;;;;;;14.52;4.95;;;;;;;;;;5007275;28;20247;-63
2023/05/27 11:44:13;;;;;;;17.88;5.82;;;;;;;;;;5010856;28;20234;-62
2023/05/27 11:46:40;;;;;;;17.85;5.75;;;;;;;;;;5011449;28;20200;-63
2023/05/27 11:49:06;;;;;;;16.27;5.80;;;;;;;;;;5010452;28;20671;-62
2023/05/27 11:51:33;;;;;;;15.10;6.00;;;;;;;;;;5010758;28;20215;-62
2023/05/27 11:53:59;;;;;;;15.23;5.20;;;;;;;;;;5009796;28;20227;-62
2023/05/27 11:56:25;;;;;;;15.35;5.60;;;;;;;;;;5010300;28;20680;-62
2023/05/27 11:58:50;;;;;;;14.50;5.22;;;;;;;;;;5011699;28;20216;-62
2023/05/27 12:01:16;;;;;;;16.27;5.75;;;;;;;;;;5010576;28;20204;-62
2023/05/27 12:03:42;;;;;;;13.63;5.03;;;;;;;;;;5010207;28;20228;-63
2023/05/27 12:06:07;;;;;;;15.13;4.93;;;;;;;;;;5010583;28;20216;-61
2023/05/27 12:08:33;;;;;;;17.92;5.78;;;;;;;;;;5011442;28;20212;-62
2023/05/27 12:10:58;;;;;;;18.55;5.82;;;;;;;;;;5010714;28;20649;-62
2023/05/27 12:13:24;;;;;;;15.10;5.32;;;;;;;;;;5009662;28;20951;-62
2023/05/27 12:15:49;;;;;;;15.13;5.38;;;;;;;;;;5011430;28;20212;-62
2023/05/27 12:18:14;;;;;;;18.88;5.65;;;;;;;;;;5008900;28;20258;-62
2023/05/27 12:20:40;;;;;;;14.85;5.55;;;;;;;;;;5011374;28;20208;-62
2023/05/27 12:23:05;;;;;;;16.00;5.40;;;;;;;;;;5010831;28;20303;-62
2023/05/27 12:25:30;;;;;;;17.23;5.65;;;;;;;;;;5010131;28;20586;-63
2023/05/27 12:27:56;;;;;;;14.20;5.28;;;;;;;;;;5010025;28;20217;-62
2023/05/27 12:30:21;;;;;;;14.77;5.32;;;;;;;;;;5010847;28;20626;-62
2023/05/27 12:32:46;;;;;;;15.30;5.30;;;;;;;;;;4999465;28;20213;-63
2023/05/27 12:35:11;;;;;;;16.98;5.68;;;;;;;;;;4986658;28;20212;-63
2023/05/27 12:37:37;;;;;;;15.00;5.47;;;;;;;;;;4988818;28;20236;-62
2023/05/27 12:40:04;;;;;;;18.02;5.70;;;;;;;;;;5000283;28;20611;-62
2023/05/27 12:42:30;;;;;;;17.33;6.13;;;;;;;;;;5005199;28;20311;-62
2023/05/27 12:44:56;;;;;;;14.27;5.80;;;;;;;;;;5005069;28;20316;-62
2023/05/27 12:47:21;;;;;;;15.93;5.50;;;;;;;;;;5005101;28;20208;-62
2023/05/27 12:49:46;;;;;;;16.95;5.85;;;;;;;;;;5000368;28;20220;-62
2023/05/27 12:52:12;;;;;;;18.23;6.13;;;;;;;;;;4986044;28;20236;-62
2023/05/27 12:54:37;;;;;;;19.45;5.60;;;;;;;;;;5001712;28;20297;-62
2023/05/27 12:57:05;;;;;;;15.00;5.47;;;;;;;;;;4978331;28;20217;-63
2023/05/27 12:59:31;;;;;;;13.48;5.00;;;;;;;;;;4996397;28;20216;-63
2023/05/27 13:01:56;;;;;;;18.63;5.70;;;;;;;;;;4999337;28;20223;-62
2023/05/27 13:04:21;;;;;;;15.68;5.80;;;;;;;;;;5004344;28;20266;-62
2023/05/27 13:06:47;;;;;;;16.65;5.30;;;;;;;;;;5003154;28;20650;-62
2023/05/27 13:09:13;;;;;;;13.90;5.28;;;;;;;;;;4989690;28;20221;-62
2023/05/27 13:11:39;;;;;;;18.05;5.20;;;;;;;;;;5008996;28;20246;-62
2023/05/27 13:14:05;;;;;;;15.75;5.35;;;;;;;;;;5006358;28;20295;-62
2023/05/27 13:16:30;;;;;;;16.73;5.50;;;;;;;;;;5008849;28;20327;-62
2023/05/27 13:18:56;;;;;;;15.02;5.07;;;;;;;;;;5002881;28;20201;-63
2023/05/27 13:21:21;;;;;;;13.95;5.30;;;;;;;;;;4984454;28;20580;-63
2023/05/27 13:23:46;;;;;;;17.25;5.63;;;;;;;;;;4982716;28;20227;-62
2023/05/27 13:26:12;;;;;;;15.25;5.57;;;;;;;;;;4985969;28;20316;-62
2023/05/27 13:28:37;;;;;;;16.42;6.20;;;;;;;;;;4989595;28;20217;-63
2023/05/27 13:31:03;;;;;;;18.20;6.65;;;;;;;;;;4989584;28;20303;-62
2023/05/27 13:33:29;;;;;;;13.95;4.75;;;;;;;;;;5000591;28;20683;-63
2023/05/27 13:35:54;;;;;;;14.60;6.00;;;;;;;;;;5014724;28;20220;-62
2023/05/27 13:38:20;;;;;;;16.35;5.43;;;;;;;;;;5014501;28;20276;-62
2023/05/27 13:40:45;;;;;;;14.25;5.72;;;;;;;;;;5010711;28;20631;-63
2023/05/27 13:43:10;;;;;;;18.27;6.15;;;;;;;;;;5009774;28;20684;-62
2023/05/27 13:45:36;;;;;;;14.38;5.05;;;;;;;;;;4995102;28;20205;-62
2023/05/27 13:48:01;;;;;;;13.18;5.03;;;;;;;;;;4994063;28;20227;-62
2023/05/27 13:50:28;;;;;;;14.57;5.20;;;;;;;;;;4995178;28;20212;-63
2023/05/27 13:52:53;;;;;;;15.15;5.15;;;;;;;;;;5007134;28;20224;-63
2023/05/27 13:55:19;;;;;;;13.27;5.03;;;;;;;;;;5013399;28;20200;-62
2023/05/27 13:57:44;;;;;;;14.13;5.35;;;;;;;;;;5014463;28;20244;-62
2023/05/27 14:00:09;;;;;;;15.23;5.85;;;;;;;;;;5014018;28;20220;-63
2023/05/27 14:02:35;;;;;;;14.23;5.25;;;;;;;;;;5013835;28;20212;-63
2023/05/27 14:05:00;;;;;;;14.18;5.50;;;;;;;;;;5013950;28;20303;-63
2023/05/27 14:07:27;;;;;;;14.93;5.20;;;;;;;;;;5009984;28;20263;-63
2023/05/27 14:09:52;;;;;;;17.85;5.18;;;;;;;;;;4993947;28;20339;-63
2023/05/27 14:12:18;;;;;;;13.70;5.38;;;;;;;;;;4994349;28;20689;-62
2023/05/27 14:14:43;;;;;;;16.02;6.20;;;;;;;;;;5001768;28;20355;-62
2023/05/27 14:17:08;;;;;;;15.70;5.43;;;;;;;;;;5012958;28;20216;-62
2023/05/27 14:19:34;;;;;;;16.42;5.47;;;;;;;;;;5013917;28;20735;-62
2023/05/27 14:21:59;;;;;;;13.23;4.75;;;;;;;;;;5014281;28;20228;-63